Flight Track Log - Related Links

Times and Time Zones

All times are in EDT time to prevent confusion due to time zone crossing. See the USC110 flight status page for this flight to view local times or setup timezone preferences in your user account.

Time Position Orientation Groundspeed Altitude Reporting Facility
EDT Latitude Longitude Course Direction KTS MPH feet Rate Location/Type
Tue 12:22:25 AM 35.2161 -80.9475 259° West 69 79 1,400  Level Atlanta Center
Tue 12:22:55 AM 35.2144 -80.9578 259° West 105 121 2,100 1,233 Climbing Atlanta Center
Tue 12:23:38 AM 35.2353 -80.9569 North 111 128 2,900 1,340 Climbing Atlanta Center
Tue 12:24:38 AM 35.2644 -80.9633 350° North 103 119 4,400 1,339 Climbing Atlanta Center
Tue 12:25:39 AM 35.2919 -80.9778 337° Northwest 100 115 5,600 1,190 Climbing Atlanta Center
Tue 12:26:39 AM 35.3194 -80.9944 334° Northwest 106 122 6,800 938 Climbing Atlanta Center
Tue 12:28:19 AM 35.3681 -81.0156 340° North 138 159 8,100 488 Climbing Atlanta Center
Tue 12:29:19 AM 35.4164 -81.0292 347° North 149 171 8,100  Level Atlanta Center
Tue 12:30:19 AM 35.4608 -81.0506 339° North 163 188 8,100  Level Atlanta Center
Tue 12:31:19 AM 35.5050 -81.0692 341° North 169 194 8,100  Level Atlanta Center
Tue 12:32:19 AM 35.5472 -81.0856 342° North 169 194 8,100  Level Atlanta Center
Tue 12:33:19 AM 35.5914 -81.1044 341° North 169 194 8,100  Level Atlanta Center
Tue 12:34:19 AM 35.6356 -81.1208 343° North 169 194 8,100 -50 Level Atlanta Center
Tue 12:35:19 AM 35.6797 -81.1369 343° North 169 194 8,000  Descending Atlanta Center
Tue 12:36:19 AM 35.7200 -81.1561 339° North 164 189 8,100 50 Climbing Atlanta Center
Tue 12:37:19 AM 35.7619 -81.1750 340° North 164 189 8,100  Level Atlanta Center
Tue 12:38:19 AM 35.8061 -81.1914 343° North 159 183 8,100  Level Atlanta Center
Tue 12:39:19 AM 35.8483 -81.2078 343° North 159 183 8,100  Level Atlanta Center
Tue 12:40:19 AM 35.8906 -81.2269 340° North 159 183 8,100  Level Atlanta Center
Tue 12:41:19 AM 35.9325 -81.2461 340° North 159 183 8,100  Level Atlanta Center
Tue 12:42:19 AM 35.9747 -81.2625 343° North 159 183 8,100  Level Atlanta Center
Tue 12:43:19 AM 36.0169 -81.2792 342° North 154 177 8,100  Level Atlanta Center
Tue 12:44:19 AM 36.0589 -81.2956 342° North 154 177 8,100  Level Atlanta Center
Tue 12:45:19 AM 36.0947 -81.3125 339° North 154 177 8,100  Level Atlanta Center
Tue 12:46:19 AM 36.1411 -81.3314 342° North 154 177 8,100  Level Atlanta Center
Tue 12:47:19 AM 36.1811 -81.3456 344° North 154 177 8,100  Level Atlanta Center
Tue 12:48:19 AM 36.2253 -81.3644 341° North 154 177 8,100 -50 Level Atlanta Center
Tue 12:49:19 AM 36.2694 -81.3811 343° North 160 184 8,000  Descending Atlanta Center
Tue 12:50:19 AM 36.3114 -81.3978 342° North 160 184 8,100  Climbing Atlanta Center
Tue 12:51:19 AM 36.3578 -81.4169 342° North 167 192 8,000 -50 Descending Atlanta Center
Tue 12:52:19 AM 36.4061 -81.4386 340° North 172 198 8,000  Level Atlanta Center
Tue 12:53:19 AM 36.4461 -81.4553 341° North 172 198 8,000  Level Atlanta Center
Tue 12:54:19 AM 36.4883 -81.4747 340° North 167 192 8,000  Level Atlanta Center
Tue 12:55:19 AM 36.5281 -81.4914 341° North 167 192 8,000  Level Atlanta Center
Tue 12:57:15 AM 36.6100 -81.5228 343° North 155 178 8,000  Level Indianapolis Center
Tue 12:58:15 AM 36.6500 -81.5397 341° North 154 177 8,000  Level Indianapolis Center
Tue 12:59:16 AM 36.6897 -81.5564 341° North 150 173 8,000  Level Indianapolis Center
Tue 01:00:16 AM 36.7292 -81.5733 342° North 151 174 8,000  Level Indianapolis Center
Tue 01:01:00 AM 36.7603 -81.5863 341° North  Level FlightAware
Tue 01:02:17 AM 36.8150 -81.6094 341° North 160 184 8,000  Level Indianapolis Center
Tue 01:03:18 AM 36.8567 -81.6269 341° North 160 184 8,000  Level Indianapolis Center
Tue 01:04:19 AM 36.8997 -81.6456 341° North 161 185 8,000  Level Indianapolis Center
Tue 01:06:20 AM 36.9875 -81.6814 342° North 164 189 8,000  Level Indianapolis Center
Tue 01:08:00 AM 37.0452 -81.7075 341° North  Level FlightAware
Tue 01:08:21 AM 37.0736 -81.7192 341° North 162 186 8,000  Level Indianapolis Center
Tue 01:09:00 AM 37.0859 -81.7246 342° North  Level FlightAware
Tue 01:09:22 AM 37.1150 -81.7369 341° North 158 182 8,000  Level Indianapolis Center
Tue 01:10:00 AM 37.1267 -81.7416 342° North  Level FlightAware
Tue 01:10:22 AM 37.1583 -81.7550 342° North 162 186 8,000  Level Indianapolis Center
Tue 01:11:00 AM 37.1675 -81.7585 342° North  Level FlightAware
Tue 01:11:23 AM 37.1994 -81.7725 341° North 158 182 8,000  Level Indianapolis Center
Tue 01:12:00 AM 37.2084 -81.7755 342° North  Level FlightAware
Tue 01:12:23 AM 37.2414 -81.7903 341° North 159 183 8,000  Level Indianapolis Center
Tue 01:13:24 AM 37.2828 -81.8081 341° North 157 181 8,000  Level Indianapolis Center
Tue 01:14:24 AM 37.3261 -81.8267 341° North 161 185 8,000  Level Indianapolis Center
Tue 01:15:25 AM 37.3689 -81.8450 341° North 162 186 8,000  Level Indianapolis Center
Tue 01:16:25 AM 37.4111 -81.8617 343° North 158 182 8,000  Level Indianapolis Center
Tue 01:17:26 AM 37.4528 -81.8808 340° North 159 183 8,000  Level Indianapolis Center
Tue 01:18:27 AM 37.4950 -81.8989 341° North 161 185 8,000  Level Indianapolis Center
Tue 01:19:27 AM 37.5444 -81.9197 342° North 160 184 8,000  Level Indianapolis Center
Tue 01:20:28 AM 37.5858 -81.9375 341° North 157 181 8,000  Level Indianapolis Center
Tue 01:21:28 AM 37.6283 -81.9558 341° North 159 183 8,000 50 Level Indianapolis Center
Tue 01:22:29 AM 37.6700 -81.9739 341° North 158 182 8,100 50 Climbing Indianapolis Center
Tue 01:23:29 AM 37.7111 -81.9917 341° North 156 180 8,100  Level Indianapolis Center
Tue 01:24:30 AM 37.7519 -82.0100 340° North 155 178 8,100  Level Indianapolis Center
Tue 01:25:30 AM 37.7944 -82.0283 341° North 159 183 8,100  Level Indianapolis Center
Tue 01:26:31 AM 37.8350 -82.0453 342° North 154 177 8,100 -50 Level Indianapolis Center
Tue 01:27:31 AM 37.8778 -82.0642 341° North 161 185 8,000 -50 Descending Indianapolis Center
Tue 01:28:32 AM 37.9206 -82.0819 342° North 163 188 8,000  Level Indianapolis Center
Tue 01:29:32 AM 37.9614 -82.1006 340° North 157 181 8,000  Level Indianapolis Center
Tue 01:30:33 AM 38.0039 -82.1189 341° North 160 184 8,000  Level Indianapolis Center
Tue 01:31:33 AM 38.0461 -82.1353 343° North 160 184 8,000  Level Indianapolis Center
Tue 01:32:34 AM 38.0881 -82.1558 339° North 160 184 8,000  Level Indianapolis Center
Tue 01:33:34 AM 38.1300 -82.1747 340° North 160 184 8,000  Level Indianapolis Center
Tue 01:34:35 AM 38.1717 -82.1928 341° North 158 182 8,000  Level Indianapolis Center
Tue 01:35:35 AM 38.2139 -82.2117 341° North 161 185 8,000  Level Indianapolis Center
Tue 01:36:36 AM 38.2567 -82.2294 342° North 161 185 8,000  Level Indianapolis Center
Tue 01:37:36 AM 38.2997 -82.2467 343° North 162 186 8,000  Level Indianapolis Center
Tue 01:38:37 AM 38.3431 -82.2664 340° North 163 188 8,000  Level Indianapolis Center
Tue 01:39:37 AM 38.3853 -82.2847 341° North 163 188 8,000  Level Indianapolis Center
Tue 01:40:38 AM 38.4278 -82.3031 341° North 160 184 8,000  Level Indianapolis Center
Tue 01:41:38 AM 38.4694 -82.3222 340° North 159 183 8,000  Level Indianapolis Center
Tue 01:42:38 AM 38.5131 -82.3417 341° North 164 189 8,000  Level Indianapolis Center
Tue 01:43:39 AM 38.5542 -82.3608 340° North 158 182 8,000  Level Indianapolis Center
Tue 01:44:39 AM 38.5964 -82.3789 342° North 158 182 8,000  Level Indianapolis Center
Tue 01:45:40 AM 38.6383 -82.3969 341° North 160 184 8,000  Level Indianapolis Center
Tue 01:46:40 AM 38.6800 -82.4153 341° North 158 182 8,000  Level Indianapolis Center
Tue 01:47:41 AM 38.7219 -82.4344 340° North 160 184 8,000  Level Indianapolis Center
Tue 01:48:41 AM 38.7631 -82.4531 341° North 157 181 8,000  Level Indianapolis Center
Tue 01:49:41 AM 38.8064 -82.4717 341° North 162 186 8,000  Level Indianapolis Center
Tue 01:50:42 AM 38.8492 -82.4900 342° North 161 185 8,000  Level Indianapolis Center
Tue 01:51:42 AM 38.8911 -82.5097 340° North 160 184 8,000  Level Indianapolis Center
Tue 01:52:43 AM 38.9336 -82.5286 341° North 162 186 8,000  Level Indianapolis Center
Tue 01:53:43 AM 38.9758 -82.5478 341° North 162 186 8,000  Level Indianapolis Center
Tue 01:54:43 AM 39.0178 -82.5658 342° North 160 184 8,000  Level Indianapolis Center
Tue 01:55:44 AM 39.0597 -82.5853 340° North 160 184 8,000  Level Indianapolis Center
Tue 01:56:44 AM 39.1014 -82.6042 341° North 158 182 8,000  Level Indianapolis Center
Tue 01:57:45 AM 39.1422 -82.6228 341° North 155 178 8,000  Level Indianapolis Center
Tue 01:58:45 AM 39.1878 -82.6428 341° North 153 176 8,000  Level Indianapolis Center
Tue 01:59:45 AM 39.2297 -82.6611 341° North 156 180 8,000  Level Indianapolis Center
Tue 02:00:46 AM 39.2711 -82.6800 341° North 157 181 8,000  Level Indianapolis Center
Tue 02:01:46 AM 39.3114 -82.6981 341° North 153 176 8,000  Level Indianapolis Center
Tue 02:02:46 AM 39.3522 -82.7164 341° North 153 176 8,000  Level Indianapolis Center
Tue 02:03:19 AM 39.3742 -82.7292 336° Northwest 155 178 8,000  Level Indianapolis Center
Tue 02:04:38 AM 39.4286 -82.7539 341° North 155 178 8,000  Level Indianapolis Center
Tue 02:05:39 AM 39.4692 -82.7711 342° North 154 177 8,000  Level Indianapolis Center
Tue 02:06:39 AM 39.5094 -82.7883 342° North 154 177 8,000 -261 Level Indianapolis Center
Tue 02:07:34 AM 39.5489 -82.7944 353° North 171 197 7,500 -887 Descending Indianapolis Center
Tue 02:08:34 AM 39.5975 -82.7669 24° Northeast 196 226 6,300 -1,190 Descending Indianapolis Center
Tue 02:09:35 AM 39.6458 -82.7447 19° North 186 214 5,100 -1,180 Descending Indianapolis Center
Tue 02:10:36 AM 39.6956 -82.7306 12° North 182 209 3,900 -1,033 Descending Indianapolis Center
Tue 02:11:37 AM 39.7439 -82.7083 19° North 185 213 3,000 -446 Descending Indianapolis Center
Tue 02:12:37 AM 39.7911 -82.6967 11° North 165 190 3,000  Level Indianapolis Center
Tue 02:13:37 AM 39.8364 -82.7064 351° North 162 186 3,000 50 Level Indianapolis Center
Tue 02:14:38 AM 39.8822 -82.7108 356° North 167 192 3,100  Climbing Indianapolis Center
Tue 02:15:39 AM 39.9144 -82.7486 318° Northwest 158 182 3,000  Descending Indianapolis Center
Tue 02:16:45 AM 39.9047 -82.8072 258° West 158 182 3,100 -331 Climbing Indianapolis Center
Tue 02:17:46 AM 39.8692 -82.8506 223° Southwest 177 204 2,300 -898 Descending Indianapolis Center
Tue 02:18:52 AM 39.8406 -82.8936 229° Southwest 170 196 1,200 -571 Descending Indianapolis Center
Tue 02:19:52 AM 39.8114 -82.9369 229° Southwest 169 194 1,100 -100 Descending Indianapolis Center

Login

Don't have an account? Register now (free) for customized features, flight alerts, and more!